sensor_id;sensor_type;location;lat;lon;timestamp;pressure;altitude;pressure_sealevel;temperature;humidity
49827;BME280;35715;51.570;6.036;2023-01-28T00:00:05;102763.53;;;4.04;78.86
49827;BME280;35715;51.570;6.036;2023-01-28T00:02:31;102766.75;;;3.96;79.14
49827;BME280;35715;51.570;6.036;2023-01-28T00:07:30;102770.50;;;3.85;78.54
49827;BME280;35715;51.570;6.036;2023-01-28T00:09:55;102773.78;;;3.84;79.77
49827;BME280;35715;51.570;6.036;2023-01-28T00:12:21;102770.03;;;3.95;78.87
49827;BME280;35715;51.570;6.036;2023-01-28T00:14:47;102766.88;;;3.83;78.32
49827;BME280;35715;51.570;6.036;2023-01-28T00:17:13;102764.50;;;3.85;79.00
49827;BME280;35715;51.570;6.036;2023-01-28T00:19:38;102767.50;;;3.95;78.91
49827;BME280;35715;51.570;6.036;2023-01-28T00:22:03;102767.06;;;3.85;77.70
49827;BME280;35715;51.570;6.036;2023-01-28T00:24:32;102768.34;;;3.88;77.55
49827;BME280;35715;51.570;6.036;2023-01-28T00:26:57;102774.72;;;3.85;76.44
49827;BME280;35715;51.570;6.036;2023-01-28T00:29:22;102762.97;;;3.72;78.34
49827;BME280;35715;51.570;6.036;2023-01-28T00:31:48;102766.22;;;3.71;78.53
49827;BME280;35715;51.570;6.036;2023-01-28T00:34:17;102764.38;;;3.70;77.35
49827;BME280;35715;51.570;6.036;2023-01-28T00:36:42;102771.34;;;3.71;77.52
49827;BME280;35715;51.570;6.036;2023-01-28T00:39:10;102774.09;;;3.73;77.84
49827;BME280;35715;51.570;6.036;2023-01-28T00:41:37;102770.50;;;3.85;78.86
49827;BME280;35715;51.570;6.036;2023-01-28T00:44:08;102766.47;;;3.80;78.06
49827;BME280;35715;51.570;6.036;2023-01-28T00:46:33;102762.16;;;3.66;77.96
49827;BME280;35715;51.570;6.036;2023-01-28T00:48:58;102764.44;;;3.78;78.20
49827;BME280;35715;51.570;6.036;2023-01-28T00:51:23;102767.88;;;3.71;78.09
49827;BME280;35715;51.570;6.036;2023-01-28T00:53:50;102771.97;;;3.63;77.71
49827;BME280;35715;51.570;6.036;2023-01-28T00:56:16;102785.97;;;3.80;77.48
49827;BME280;35715;51.570;6.036;2023-01-28T00:58:42;102781.44;;;3.84;76.60
49827;BME280;35715;51.570;6.036;2023-01-28T01:01:08;102791.38;;;3.96;77.48
49827;BME280;35715;51.570;6.036;2023-01-28T01:06:44;102794.19;;;4.12;76.33
49827;BME280;35715;51.570;6.036;2023-01-28T01:09:09;102792.03;;;4.15;75.47
49827;BME280;35715;51.570;6.036;2023-01-28T01:11:35;102788.81;;;4.23;76.17
49827;BME280;35715;51.570;6.036;2023-01-28T01:16:59;102789.00;;;4.24;75.29
49827;BME280;35715;51.570;6.036;2023-01-28T01:19:24;102781.31;;;4.24;74.92
49827;BME280;35715;51.570;6.036;2023-01-28T01:21:50;102787.38;;;4.32;75.49
49827;BME280;35715;51.570;6.036;2023-01-28T01:24:24;102785.53;;;4.31;74.06
49827;BME280;35715;51.570;6.036;2023-01-28T01:26:53;102789.03;;;4.32;74.51
49827;BME280;35715;51.570;6.036;2023-01-28T01:29:18;102781.56;;;4.33;75.13
49827;BME280;35715;51.570;6.036;2023-01-28T01:31:44;102781.38;;;4.32;73.60
49827;BME280;35715;51.570;6.036;2023-01-28T01:34:10;102772.94;;;4.25;75.41
49827;BME280;35715;51.570;6.036;2023-01-28T01:36:35;102781.50;;;4.26;75.40
49827;BME280;35715;51.570;6.036;2023-01-28T01:39:00;102784.75;;;4.18;74.83
49827;BME280;35715;51.570;6.036;2023-01-28T01:41:27;102795.84;;;4.11;74.68
49827;BME280;35715;51.570;6.036;2023-01-28T01:43:57;102789.28;;;4.13;75.62
49827;BME280;35715;51.570;6.036;2023-01-28T01:46:37;102789.91;;;3.98;75.64
49827;BME280;35715;51.570;6.036;2023-01-28T01:49:11;102797.69;;;3.85;76.26
49827;BME280;35715;51.570;6.036;2023-01-28T01:51:38;102791.31;;;3.88;76.82
49827;BME280;35715;51.570;6.036;2023-01-28T01:54:18;102796.88;;;3.99;76.47
49827;BME280;35715;51.570;6.036;2023-01-28T01:56:45;102795.28;;;4.06;75.59
49827;BME280;35715;51.570;6.036;2023-01-28T01:59:13;102800.81;;;4.17;75.85
49827;BME280;35715;51.570;6.036;2023-01-28T02:01:39;102801.91;;;4.19;75.49
49827;BME280;35715;51.570;6.036;2023-01-28T02:04:14;102800.19;;;4.05;75.66
49827;BME280;35715;51.570;6.036;2023-01-28T02:06:42;102813.47;;;3.95;76.51
49827;BME280;35715;51.570;6.036;2023-01-28T02:12:16;102806.56;;;3.74;76.54
49827;BME280;35715;51.570;6.036;2023-01-28T02:17:25;102801.25;;;3.72;76.61
49827;BME280;35715;51.570;6.036;2023-01-28T02:20:01;102806.31;;;3.65;75.25
49827;BME280;35715;51.570;6.036;2023-01-28T02:22:43;102809.84;;;3.53;73.03
49827;BME280;35715;51.570;6.036;2023-01-28T02:28:16;102804.88;;;3.47;74.08
49827;BME280;35715;51.570;6.036;2023-01-28T02:30:54;102810.88;;;3.48;75.29
49827;BME280;35715;51.570;6.036;2023-01-28T02:35:53;102795.97;;;3.51;74.53
49827;BME280;35715;51.570;6.036;2023-01-28T02:38:27;102787.66;;;3.39;74.35
49827;BME280;35715;51.570;6.036;2023-01-28T02:40:56;102793.94;;;3.28;73.51
49827;BME280;35715;51.570;6.036;2023-01-28T02:43:34;102799.59;;;3.26;73.07
49827;BME280;35715;51.570;6.036;2023-01-28T02:46:01;102797.16;;;3.20;72.94
49827;BME280;35715;51.570;6.036;2023-01-28T02:48:46;102788.63;;;3.27;74.20
49827;BME280;35715;51.570;6.036;2023-01-28T02:54:02;102796.69;;;3.30;74.07
49827;BME280;35715;51.570;6.036;2023-01-28T02:57:06;102800.88;;;3.29;72.29
49827;BME280;35715;51.570;6.036;2023-01-28T02:59:27;102801.38;;;3.27;72.52
49827;BME280;35715;51.570;6.036;2023-01-28T03:02:00;102797.34;;;3.42;74.89
49827;BME280;35715;51.570;6.036;2023-01-28T03:04:29;102800.22;;;3.58;74.65
49827;BME280;35715;51.570;6.036;2023-01-28T03:06:57;102801.66;;;3.55;73.66
49827;BME280;35715;51.570;6.036;2023-01-28T03:09:27;102794.84;;;3.49;74.33
49827;BME280;35715;51.570;6.036;2023-01-28T03:14:37;102795.53;;;3.68;74.78
49827;BME280;35715;51.570;6.036;2023-01-28T03:17:25;102802.50;;;3.69;74.80
49827;BME280;35715;51.570;6.036;2023-01-28T03:20:10;102808.53;;;3.69;74.48
49827;BME280;35715;51.570;6.036;2023-01-28T03:22:55;102807.97;;;3.72;74.50
49827;BME280;35715;51.570;6.036;2023-01-28T03:25:46;102815.75;;;3.66;75.52
49827;BME280;35715;51.570;6.036;2023-01-28T03:28:31;102807.63;;;3.49;75.21
49827;BME280;35715;51.570;6.036;2023-01-28T03:34:05;102811.78;;;3.28;76.08
49827;BME280;35715;51.570;6.036;2023-01-28T03:36:54;102803.63;;;3.31;76.70
49827;BME280;35715;51.570;6.036;2023-01-28T03:39:21;102813.78;;;3.44;76.26
49827;BME280;35715;51.570;6.036;2023-01-28T03:44:23;102815.88;;;3.33;75.51
49827;BME280;35715;51.570;6.036;2023-01-28T03:47:07;102809.63;;;3.31;75.98
49827;BME280;35715;51.570;6.036;2023-01-28T03:49:35;102810.63;;;3.39;76.38
49827;BME280;35715;51.570;6.036;2023-01-28T03:52:00;102812.72;;;3.49;74.96
49827;BME280;35715;51.570;6.036;2023-01-28T03:54:40;102806.75;;;3.35;75.17
49827;BME280;35715;51.570;6.036;2023-01-28T03:57:06;102801.78;;;3.30;74.67
49827;BME280;35715;51.570;6.036;2023-01-28T03:59:31;102817.44;;;3.26;75.17
49827;BME280;35715;51.570;6.036;2023-01-28T04:01:57;102821.50;;;3.31;76.03
49827;BME280;35715;51.570;6.036;2023-01-28T04:04:29;102806.53;;;3.47;76.48
49827;BME280;35715;51.570;6.036;2023-01-28T04:06:56;102815.72;;;3.59;75.93
49827;BME280;35715;51.570;6.036;2023-01-28T04:09:22;102821.63;;;3.65;75.54
49827;BME280;35715;51.570;6.036;2023-01-28T04:11:47;102821.94;;;3.61;75.71
49827;BME280;35715;51.570;6.036;2023-01-28T04:14:16;102822.00;;;3.68;75.76
49827;BME280;35715;51.570;6.036;2023-01-28T04:16:41;102820.22;;;3.75;75.47
49827;BME280;35715;51.570;6.036;2023-01-28T04:19:07;102828.94;;;3.69;74.91
49827;BME280;35715;51.570;6.036;2023-01-28T04:21:32;102830.75;;;3.70;75.12
49827;BME280;35715;51.570;6.036;2023-01-28T04:24:03;102830.13;;;3.79;75.36
49827;BME280;35715;51.570;6.036;2023-01-28T04:26:29;102834.06;;;3.69;74.90
49827;BME280;35715;51.570;6.036;2023-01-28T04:28:54;102833.63;;;3.66;73.47
49827;BME280;35715;51.570;6.036;2023-01-28T04:31:19;102834.31;;;3.58;72.22
49827;BME280;35715;51.570;6.036;2023-01-28T04:36:16;102830.06;;;3.71;73.01
49827;BME280;35715;51.570;6.036;2023-01-28T04:38:41;102823.22;;;3.65;71.67
49827;BME280;35715;51.570;6.036;2023-01-28T04:41:06;102824.22;;;3.72;72.52
49827;BME280;35715;51.570;6.036;2023-01-28T04:46:19;102821.78;;;3.87;73.06
49827;BME280;35715;51.570;6.036;2023-01-28T04:48:45;102829.44;;;3.87;71.61
49827;BME280;35715;51.570;6.036;2023-01-28T04:51:10;102830.16;;;3.86;71.42
49827;BME280;35715;51.570;6.036;2023-01-28T04:56:04;102831.72;;;3.78;69.85
49827;BME280;35715;51.570;6.036;2023-01-28T04:58:30;102832.81;;;3.73;70.29
49827;BME280;35715;51.570;6.036;2023-01-28T05:00:55;102830.13;;;3.79;71.15
49827;BME280;35715;51.570;6.036;2023-01-28T05:03:21;102832.13;;;3.81;71.14
49827;BME280;35715;51.570;6.036;2023-01-28T05:05:46;102832.03;;;3.67;69.13
49827;BME280;35715;51.570;6.036;2023-01-28T05:08:12;102840.09;;;3.50;70.89
49827;BME280;35715;51.570;6.036;2023-01-28T05:10:37;102826.06;;;3.33;71.50
49827;BME280;35715;51.570;6.036;2023-01-28T05:13:04;102836.78;;;3.31;69.75
49827;BME280;35715;51.570;6.036;2023-01-28T05:15:30;102829.41;;;3.40;71.04
49827;BME280;35715;51.570;6.036;2023-01-28T05:17:56;102828.88;;;3.42;69.85
49827;BME280;35715;51.570;6.036;2023-01-28T05:20:21;102846.97;;;3.44;69.03
49827;BME280;35715;51.570;6.036;2023-01-28T05:22:46;102840.00;;;3.43;67.77
49827;BME280;35715;51.570;6.036;2023-01-28T05:25:13;102846.22;;;3.45;66.90
49827;BME280;35715;51.570;6.036;2023-01-28T05:27:39;102838.84;;;3.33;66.09
49827;BME280;35715;51.570;6.036;2023-01-28T05:30:04;102835.44;;;3.07;67.33
49827;BME280;35715;51.570;6.036;2023-01-28T05:32:30;102841.91;;;2.98;68.43
49827;BME280;35715;51.570;6.036;2023-01-28T05:35:01;102841.22;;;2.86;70.40
49827;BME280;35715;51.570;6.036;2023-01-28T05:37:26;102836.56;;;2.76;71.07
49827;BME280;35715;51.570;6.036;2023-01-28T05:39:51;102827.66;;;2.80;71.09
49827;BME280;35715;51.570;6.036;2023-01-28T05:42:17;102834.78;;;2.95;71.67
49827;BME280;35715;51.570;6.036;2023-01-28T05:47:29;102826.91;;;3.27;71.12
49827;BME280;35715;51.570;6.036;2023-01-28T05:49:54;102836.00;;;3.25;69.72
49827;BME280;35715;51.570;6.036;2023-01-28T05:52:19;102841.38;;;3.33;70.09
49827;BME280;35715;51.570;6.036;2023-01-28T05:54:50;102845.03;;;3.35;68.67
49827;BME280;35715;51.570;6.036;2023-01-28T05:57:15;102843.19;;;3.34;68.89
49827;BME280;35715;51.570;6.036;2023-01-28T05:59:40;102834.50;;;3.19;69.25
49827;BME280;35715;51.570;6.036;2023-01-28T06:02:05;102839.66;;;3.27;69.30
49827;BME280;35715;51.570;6.036;2023-01-28T06:04:33;102844.13;;;3.35;70.26
49827;BME280;35715;51.570;6.036;2023-01-28T06:06:58;102855.13;;;3.41;69.77
49827;BME280;35715;51.570;6.036;2023-01-28T06:09:23;102858.06;;;3.44;69.63
49827;BME280;35715;51.570;6.036;2023-01-28T06:11:48;102854.53;;;3.36;68.06
49827;BME280;35715;51.570;6.036;2023-01-28T06:14:15;102856.03;;;3.42;68.77
49827;BME280;35715;51.570;6.036;2023-01-28T06:16:40;102852.97;;;3.44;68.50
49827;BME280;35715;51.570;6.036;2023-01-28T06:19:05;102858.19;;;3.38;68.61
49827;BME280;35715;51.570;6.036;2023-01-28T06:21:30;102861.25;;;3.36;68.07
49827;BME280;35715;51.570;6.036;2023-01-28T06:26:28;102861.66;;;3.39;68.43
49827;BME280;35715;51.570;6.036;2023-01-28T06:28:53;102870.22;;;3.19;67.58
49827;BME280;35715;51.570;6.036;2023-01-28T06:31:19;102861.50;;;2.92;67.27
49827;BME280;35715;51.570;6.036;2023-01-28T06:36:28;102863.50;;;2.74;68.40
49827;BME280;35715;51.570;6.036;2023-01-28T06:38:54;102868.06;;;2.77;69.05
49827;BME280;35715;51.570;6.036;2023-01-28T06:41:19;102868.25;;;2.78;69.97
49827;BME280;35715;51.570;6.036;2023-01-28T06:43:46;102871.34;;;2.76;71.34
49827;BME280;35715;51.570;6.036;2023-01-28T06:46:11;102874.34;;;2.86;69.52
49827;BME280;35715;51.570;6.036;2023-01-28T06:48:37;102871.09;;;3.00;69.06
49827;BME280;35715;51.570;6.036;2023-01-28T06:51:02;102865.44;;;3.02;68.92
49827;BME280;35715;51.570;6.036;2023-01-28T06:53:27;102866.66;;;3.12;69.17
49827;BME280;35715;51.570;6.036;2023-01-28T06:55:52;102854.91;;;3.19;68.88
49827;BME280;35715;51.570;6.036;2023-01-28T06:58:18;102863.59;;;3.14;67.88
49827;BME280;35715;51.570;6.036;2023-01-28T07:00:43;102867.28;;;3.16;68.08
49827;BME280;35715;51.570;6.036;2023-01-28T07:03:08;102881.31;;;3.20;68.33
49827;BME280;35715;51.570;6.036;2023-01-28T07:05:49;102878.06;;;3.21;68.10
49827;BME280;35715;51.570;6.036;2023-01-28T07:08:15;102880.94;;;3.17;69.20
49827;BME280;35715;51.570;6.036;2023-01-28T07:10:42;102881.03;;;3.24;69.50
49827;BME280;35715;51.570;6.036;2023-01-28T07:13:07;102869.97;;;3.31;69.48
49827;BME280;35715;51.570;6.036;2023-01-28T07:15:39;102867.41;;;3.31;68.68
49827;BME280;35715;51.570;6.036;2023-01-28T07:18:04;102871.72;;;3.25;67.76
49827;BME280;35715;51.570;6.036;2023-01-28T07:20:30;102869.38;;;3.26;68.20
49827;BME280;35715;51.570;6.036;2023-01-28T07:22:55;102874.50;;;3.13;68.04
49827;BME280;35715;51.570;6.036;2023-01-28T07:25:37;102866.38;;;3.03;67.39
49827;BME280;35715;51.570;6.036;2023-01-28T07:28:02;102875.59;;;2.95;67.66
49827;BME280;35715;51.570;6.036;2023-01-28T07:30:27;102895.03;;;2.95;68.31
49827;BME280;35715;51.570;6.036;2023-01-28T07:32:53;102897.44;;;3.13;69.75
49827;BME280;35715;51.570;6.036;2023-01-28T07:37:56;102902.41;;;2.99;67.15
49827;BME280;35715;51.570;6.036;2023-01-28T07:40:21;102902.94;;;2.83;67.93
49827;BME280;35715;51.570;6.036;2023-01-28T07:42:47;102903.03;;;2.91;66.46
49827;BME280;35715;51.570;6.036;2023-01-28T07:45:29;102904.44;;;3.01;67.72
49827;BME280;35715;51.570;6.036;2023-01-28T07:47:56;102907.69;;;3.00;66.60
49827;BME280;35715;51.570;6.036;2023-01-28T07:50:22;102914.78;;;2.70;67.48
49827;BME280;35715;51.570;6.036;2023-01-28T07:52:48;102912.34;;;2.52;68.32
49827;BME280;35715;51.570;6.036;2023-01-28T07:55:15;102913.44;;;2.54;66.88
49827;BME280;35715;51.570;6.036;2023-01-28T07:57:58;102917.72;;;2.73;67.36
49827;BME280;35715;51.570;6.036;2023-01-28T08:00:25;102917.00;;;2.87;68.24
49827;BME280;35715;51.570;6.036;2023-01-28T08:02:54;102922.59;;;2.97;67.71
49827;BME280;35715;51.570;6.036;2023-01-28T08:08:20;102929.41;;;3.04;67.99
49827;BME280;35715;51.570;6.036;2023-01-28T08:10:45;102929.09;;;3.08;67.50
49827;BME280;35715;51.570;6.036;2023-01-28T08:13:11;102933.59;;;3.16;67.69
49827;BME280;35715;51.570;6.036;2023-01-28T08:18:24;102936.25;;;3.11;65.56
49827;BME280;35715;51.570;6.036;2023-01-28T08:20:53;102942.44;;;3.13;68.08
49827;BME280;35715;51.570;6.036;2023-01-28T08:23:18;102951.84;;;3.19;68.40
49827;BME280;35715;51.570;6.036;2023-01-28T08:28:31;102947.00;;;3.28;68.33
49827;BME280;35715;51.570;6.036;2023-01-28T08:30:58;102945.84;;;3.39;68.24
49827;BME280;35715;51.570;6.036;2023-01-28T08:33:23;102949.44;;;3.47;68.00
49827;BME280;35715;51.570;6.036;2023-01-28T08:35:48;102965.34;;;3.51;67.75
49827;BME280;35715;51.570;6.036;2023-01-28T08:38:14;102963.88;;;3.53;67.87
49827;BME280;35715;51.570;6.036;2023-01-28T08:40:40;102961.44;;;3.48;67.72
49827;BME280;35715;51.570;6.036;2023-01-28T08:43:05;102967.41;;;3.41;68.32
49827;BME280;35715;51.570;6.036;2023-01-28T08:45:47;102967.59;;;3.30;67.70
49827;BME280;35715;51.570;6.036;2023-01-28T08:48:14;102967.00;;;3.25;67.89
49827;BME280;35715;51.570;6.036;2023-01-28T08:50:39;102985.41;;;3.23;67.59
49827;BME280;35715;51.570;6.036;2023-01-28T08:53:06;102987.75;;;3.21;68.47
49827;BME280;35715;51.570;6.036;2023-01-28T08:58:17;102985.59;;;3.11;69.90
49827;BME280;35715;51.570;6.036;2023-01-28T09:00:43;102992.25;;;3.04;71.12
49827;BME280;35715;51.570;6.036;2023-01-28T09:03:08;102997.78;;;2.94;68.73
49827;BME280;35715;51.570;6.036;2023-01-28T09:05:34;102992.88;;;2.70;70.36
49827;BME280;35715;51.570;6.036;2023-01-28T09:08:00;102997.25;;;2.71;71.17
49827;BME280;35715;51.570;6.036;2023-01-28T09:10:26;102991.72;;;2.67;70.97
49827;BME280;35715;51.570;6.036;2023-01-28T09:12:51;102995.31;;;2.88;70.77
49827;BME280;35715;51.570;6.036;2023-01-28T09:15:16;103005.69;;;3.02;70.33
49827;BME280;35715;51.570;6.036;2023-01-28T09:17:42;103008.97;;;2.89;70.81
49827;BME280;35715;51.570;6.036;2023-01-28T09:20:07;103006.53;;;2.83;69.48
49827;BME280;35715;51.570;6.036;2023-01-28T09:22:32;103006.72;;;2.72;70.34
49827;BME280;35715;51.570;6.036;2023-01-28T09:28:02;103022.69;;;2.45;72.21
49827;BME280;35715;51.570;6.036;2023-01-28T09:30:28;103022.28;;;2.42;70.66
49827;BME280;35715;51.570;6.036;2023-01-28T09:32:53;103029.84;;;2.16;71.10
49827;BME280;35715;51.570;6.036;2023-01-28T09:35:19;103010.47;;;2.42;70.62
49827;BME280;35715;51.570;6.036;2023-01-28T09:37:45;103013.75;;;2.67;70.48
49827;BME280;35715;51.570;6.036;2023-01-28T09:40:12;103024.53;;;2.46;69.21
49827;BME280;35715;51.570;6.036;2023-01-28T09:47:45;103015.44;;;2.04;71.46
49827;BME280;35715;51.570;6.036;2023-01-28T09:50:13;103011.47;;;2.06;71.69
49827;BME280;35715;51.570;6.036;2023-01-28T09:52:40;103019.44;;;2.15;71.21
49827;BME280;35715;51.570;6.036;2023-01-28T09:57:54;103025.97;;;2.57;70.71
49827;BME280;35715;51.570;6.036;2023-01-28T10:00:21;103028.31;;;2.55;69.70
49827;BME280;35715;51.570;6.036;2023-01-28T10:08:09;103028.34;;;2.81;69.75
49827;BME280;35715;51.570;6.036;2023-01-28T10:10:43;103032.00;;;2.83;67.21
49827;BME280;35715;51.570;6.036;2023-01-28T10:13:14;103041.91;;;2.74;66.86
49827;BME280;35715;51.570;6.036;2023-01-28T10:18:33;103039.34;;;2.61;68.80
49827;BME280;35715;51.570;6.036;2023-01-28T10:21:22;103046.22;;;2.94;70.34
49827;BME280;35715;51.570;6.036;2023-01-28T10:23:47;103044.56;;;3.07;66.71
49827;BME280;35715;51.570;6.036;2023-01-28T10:26:20;103046.03;;;3.18;66.32
49827;BME280;35715;51.570;6.036;2023-01-28T10:28:48;103043.34;;;2.85;65.74
49827;BME280;35715;51.570;6.036;2023-01-28T10:31:14;103046.06;;;2.61;68.03
49827;BME280;35715;51.570;6.036;2023-01-28T10:33:41;103054.06;;;2.82;69.04
49827;BME280;35715;51.570;6.036;2023-01-28T10:36:06;103048.03;;;2.95;68.47
49827;BME280;35715;51.570;6.036;2023-01-28T10:38:32;103036.72;;;3.06;67.37
49827;BME280;35715;51.570;6.036;2023-01-28T10:40:59;103041.00;;;3.25;67.62
49827;BME280;35715;51.570;6.036;2023-01-28T10:43:33;103040.81;;;3.11;68.46
49827;BME280;35715;51.570;6.036;2023-01-28T10:49:26;103028.38;;;3.19;67.40
49827;BME280;35715;51.570;6.036;2023-01-28T10:51:28;103033.88;;;3.23;67.48
49827;BME280;35715;51.570;6.036;2023-01-28T10:53:56;103039.47;;;3.20;66.70
49827;BME280;35715;51.570;6.036;2023-01-28T10:56:25;103033.56;;;3.14;67.94
49827;BME280;35715;51.570;6.036;2023-01-28T11:01:16;103027.31;;;3.12;68.15
49827;BME280;35715;51.570;6.036;2023-01-28T11:03:55;103022.22;;;3.12;68.16
49827;BME280;35715;51.570;6.036;2023-01-28T11:06:22;103021.53;;;3.00;66.53
49827;BME280;35715;51.570;6.036;2023-01-28T11:08:48;103019.38;;;3.16;67.29
49827;BME280;35715;51.570;6.036;2023-01-28T11:11:13;103028.78;;;3.23;66.93
49827;BME280;35715;51.570;6.036;2023-01-28T11:13:48;103041.00;;;3.25;68.24
49827;BME280;35715;51.570;6.036;2023-01-28T11:16:15;103035.34;;;3.41;67.73
49827;BME280;35715;51.570;6.036;2023-01-28T11:18:49;103026.19;;;3.35;66.15
49827;BME280;35715;51.570;6.036;2023-01-28T11:21:25;103022.75;;;2.96;67.06
49827;BME280;35715;51.570;6.036;2023-01-28T11:26:24;103025.09;;;3.08;66.92
49827;BME280;35715;51.570;6.036;2023-01-28T11:28:51;103013.22;;;3.34;67.13
49827;BME280;35715;51.570;6.036;2023-01-28T11:31:17;103005.56;;;3.47;66.67
49827;BME280;35715;51.570;6.036;2023-01-28T11:33:44;103002.53;;;3.36;66.23
49827;BME280;35715;51.570;6.036;2023-01-28T11:38:56;102990.50;;;3.55;65.72
49827;BME280;35715;51.570;6.036;2023-01-28T11:41:24;102981.16;;;3.49;65.65
49827;BME280;35715;51.570;6.036;2023-01-28T11:43:50;102978.28;;;3.53;66.89
49827;BME280;35715;51.570;6.036;2023-01-28T11:48:51;102985.53;;;3.83;65.30
49827;BME280;35715;51.570;6.036;2023-01-28T12:04:28;102964.81;;;3.08;67.49
49827;BME280;35715;51.570;6.036;2023-01-28T12:07:15;102957.84;;;3.20;66.14
49827;BME280;35715;51.570;6.036;2023-01-28T12:19:41;102898.69;;;3.83;65.52
49827;BME280;35715;51.570;6.036;2023-01-28T12:22:15;102883.03;;;4.07;64.86
49827;BME280;35715;51.570;6.036;2023-01-28T12:25:11;102887.53;;;4.22;63.23
49827;BME280;35715;51.570;6.036;2023-01-28T12:45:56;102927.19;;;3.66;63.07
49827;BME280;35715;51.570;6.036;2023-01-28T12:48:36;102917.03;;;3.93;63.08
49827;BME280;35715;51.570;6.036;2023-01-28T12:53:48;102924.38;;;4.79;63.16
49827;BME280;35715;51.570;6.036;2023-01-28T12:56:16;102930.91;;;5.82;61.81
49827;BME280;35715;51.570;6.036;2023-01-28T12:58:44;102936.44;;;6.50;59.24
49827;BME280;35715;51.570;6.036;2023-01-28T13:01:12;102922.75;;;6.13;57.64
49827;BME280;35715;51.570;6.036;2023-01-28T13:03:47;102921.88;;;6.72;57.38
49827;BME280;35715;51.570;6.036;2023-01-28T13:06:14;102934.22;;;6.38;57.32
49827;BME280;35715;51.570;6.036;2023-01-28T13:08:43;102924.13;;;5.82;56.54
49827;BME280;35715;51.570;6.036;2023-01-28T13:11:11;102912.66;;;6.08;57.66
49827;BME280;35715;51.570;6.036;2023-01-28T13:13:39;102910.63;;;6.27;60.08
49827;BME280;35715;51.570;6.036;2023-01-28T13:16:08;102894.19;;;6.03;57.52
49827;BME280;35715;51.570;6.036;2023-01-28T13:29:28;102936.22;;;5.13;59.88
49827;BME280;35715;51.570;6.036;2023-01-28T13:31:55;102925.19;;;4.92;59.16
49827;BME280;35715;51.570;6.036;2023-01-28T13:39:53;102931.78;;;4.97;59.62
49827;BME280;35715;51.570;6.036;2023-01-28T13:42:29;102925.19;;;4.92;60.69
49827;BME280;35715;51.570;6.036;2023-01-28T13:50:42;102904.69;;;4.85;60.78
49827;BME280;35715;51.570;6.036;2023-01-28T14:18:47;102855.06;;;4.56;62.52
49827;BME280;35715;51.570;6.036;2023-01-28T14:21:20;102858.94;;;4.74;62.24
49827;BME280;35715;51.570;6.036;2023-01-28T14:23:48;102861.88;;;4.70;60.14
49827;BME280;35715;51.570;6.036;2023-01-28T14:31:35;102877.47;;;4.17;61.22
49827;BME280;35715;51.570;6.036;2023-01-28T14:36:38;102870.63;;;4.10;60.97
49827;BME280;35715;51.570;6.036;2023-01-28T14:39:04;102879.75;;;4.08;61.43
49827;BME280;35715;51.570;6.036;2023-01-28T14:41:30;102876.00;;;4.19;61.76
49827;BME280;35715;51.570;6.036;2023-01-28T14:44:06;102874.47;;;4.06;60.65
49827;BME280;35715;51.570;6.036;2023-01-28T14:46:40;102881.59;;;3.89;61.09
49827;BME280;35715;51.570;6.036;2023-01-28T14:49:17;102883.25;;;3.88;61.27
49827;BME280;35715;51.570;6.036;2023-01-28T14:51:57;102887.53;;;3.95;61.99
49827;BME280;35715;51.570;6.036;2023-01-28T14:57:51;102899.69;;;3.90;61.79
49827;BME280;35715;51.570;6.036;2023-01-28T15:02:44;102909.16;;;4.12;62.82
49827;BME280;35715;51.570;6.036;2023-01-28T15:05:45;102905.88;;;4.13;63.10
49827;BME280;35715;51.570;6.036;2023-01-28T15:08:03;102915.84;;;4.04;63.07
49827;BME280;35715;51.570;6.036;2023-01-28T15:10:29;102911.31;;;4.08;63.66
49827;BME280;35715;51.570;6.036;2023-01-28T15:15:29;102902.75;;;4.08;63.03
49827;BME280;35715;51.570;6.036;2023-01-28T15:18:06;102902.56;;;4.06;62.89
49827;BME280;35715;51.570;6.036;2023-01-28T15:20:36;102904.34;;;4.00;62.99
49827;BME280;35715;51.570;6.036;2023-01-28T15:23:01;102905.25;;;4.01;63.67
49827;BME280;35715;51.570;6.036;2023-01-28T15:25:30;102913.84;;;4.01;63.26
49827;BME280;35715;51.570;6.036;2023-01-28T15:27:57;102912.19;;;4.02;63.74
49827;BME280;35715;51.570;6.036;2023-01-28T15:30:24;102912.59;;;4.05;63.68
49827;BME280;35715;51.570;6.036;2023-01-28T15:35:24;102920.31;;;3.92;63.00
49827;BME280;35715;51.570;6.036;2023-01-28T15:37:49;102915.34;;;3.86;63.16
49827;BME280;35715;51.570;6.036;2023-01-28T15:40:18;102923.91;;;3.87;63.07
49827;BME280;35715;51.570;6.036;2023-01-28T15:42:47;102931.38;;;3.85;63.12
49827;BME280;35715;51.570;6.036;2023-01-28T15:45:16;102929.34;;;3.83;63.71
49827;BME280;35715;51.570;6.036;2023-01-28T15:47:41;102937.19;;;3.84;64.02
49827;BME280;35715;51.570;6.036;2023-01-28T15:50:07;102946.50;;;3.84;64.17
49827;BME280;35715;51.570;6.036;2023-01-28T15:52:39;102957.22;;;3.81;64.16
49827;BME280;35715;51.570;6.036;2023-01-28T15:55:19;102969.41;;;3.77;64.40
49827;BME280;35715;51.570;6.036;2023-01-28T15:57:53;102960.06;;;3.70;64.75
49827;BME280;35715;51.570;6.036;2023-01-28T16:00:18;102958.41;;;3.70;64.87
49827;BME280;35715;51.570;6.036;2023-01-28T16:02:45;102966.38;;;3.66;64.89
49827;BME280;35715;51.570;6.036;2023-01-28T16:08:11;102967.03;;;3.58;65.27
49827;BME280;35715;51.570;6.036;2023-01-28T16:10:40;102970.28;;;3.57;65.26
49827;BME280;35715;51.570;6.036;2023-01-28T16:13:11;102965.72;;;3.54;65.54
49827;BME280;35715;51.570;6.036;2023-01-28T16:15:43;102966.25;;;3.52;65.47
49827;BME280;35715;51.570;6.036;2023-01-28T16:18:14;102959.44;;;3.45;65.58
49827;BME280;35715;51.570;6.036;2023-01-28T16:20:45;102962.50;;;3.43;65.82
49827;BME280;35715;51.570;6.036;2023-01-28T16:23:20;102959.34;;;3.38;65.89
49827;BME280;35715;51.570;6.036;2023-01-28T16:25:56;102949.66;;;3.35;65.69
49827;BME280;35715;51.570;6.036;2023-01-28T16:28:22;102935.78;;;3.33;65.72
49827;BME280;35715;51.570;6.036;2023-01-28T16:30:47;102940.28;;;3.29;65.72
49827;BME280;35715;51.570;6.036;2023-01-28T16:33:19;102944.59;;;3.23;65.43